sensor_id;sensor_type;location;lat;lon;timestamp;P1;durP1;ratioP1;P2;durP2;ratioP2
62911;SDS011;49111;51.028;4.218;2022-09-27T00:01:19;5.40;;;2.13;;
62911;SDS011;49111;51.028;4.218;2022-09-27T00:03:44;4.20;;;1.80;;
62911;SDS011;49111;51.028;4.218;2022-09-27T00:06:23;7.60;;;1.95;;
62911;SDS011;49111;51.028;4.218;2022-09-27T00:08:54;7.88;;;2.22;;
62911;SDS011;49111;51.028;4.218;2022-09-27T00:11:37;4.40;;;1.67;;
62911;SDS011;49111;51.028;4.218;2022-09-27T00:14:05;3.67;;;1.75;;
62911;SDS011;49111;51.028;4.218;2022-09-27T00:16:33;9.18;;;2.20;;
62911;SDS011;49111;51.028;4.218;2022-09-27T00:19:01;7.40;;;2.17;;
62911;SDS011;49111;51.028;4.218;2022-09-27T00:21:29;10.63;;;3.08;;
62911;SDS011;49111;51.028;4.218;2022-09-27T00:23:56;5.53;;;1.80;;
62911;SDS011;49111;51.028;4.218;2022-09-27T00:26:23;12.60;;;2.13;;
62911;SDS011;49111;51.028;4.218;2022-09-27T00:28:50;4.75;;;1.23;;
62911;SDS011;49111;51.028;4.218;2022-09-27T00:31:17;4.25;;;1.52;;
62911;SDS011;49111;51.028;4.218;2022-09-27T00:33:46;4.82;;;1.70;;
62911;SDS011;49111;51.028;4.218;2022-09-27T00:36:13;7.90;;;2.03;;
62911;SDS011;49111;51.028;4.218;2022-09-27T00:38:39;2.97;;;1.83;;
62911;SDS011;49111;51.028;4.218;2022-09-27T00:41:05;5.75;;;1.98;;
62911;SDS011;49111;51.028;4.218;2022-09-27T00:43:54;4.82;;;1.38;;
62911;SDS011;49111;51.028;4.218;2022-09-27T00:46:25;6.15;;;1.50;;
62911;SDS011;49111;51.028;4.218;2022-09-27T00:48:59;4.68;;;2.00;;
62911;SDS011;49111;51.028;4.218;2022-09-27T00:51:31;6.93;;;1.70;;
62911;SDS011;49111;51.028;4.218;2022-09-27T00:53:59;6.95;;;2.20;;
62911;SDS011;49111;51.028;4.218;2022-09-27T00:56:26;5.68;;;1.50;;
62911;SDS011;49111;51.028;4.218;2022-09-27T00:58:55;5.32;;;1.30;;
62911;SDS011;49111;51.028;4.218;2022-09-27T01:01:35;6.40;;;1.73;;
62911;SDS011;49111;51.028;4.218;2022-09-27T01:06:34;8.45;;;1.75;;
62911;SDS011;49111;51.028;4.218;2022-09-27T01:09:01;7.38;;;1.60;;
62911;SDS011;49111;51.028;4.218;2022-09-27T01:11:38;3.97;;;1.33;;
62911;SDS011;49111;51.028;4.218;2022-09-27T01:14:11;5.15;;;1.95;;
62911;SDS011;49111;51.028;4.218;2022-09-27T01:22:44;4.75;;;1.70;;
62911;SDS011;49111;51.028;4.218;2022-09-27T01:36:33;3.63;;;1.20;;
62911;SDS011;49111;51.028;4.218;2022-09-27T01:42:10;5.07;;;1.35;;
62911;SDS011;49111;51.028;4.218;2022-09-27T01:48:17;3.65;;;1.52;;
62911;SDS011;49111;51.028;4.218;2022-09-27T01:50:52;4.28;;;1.20;;
62911;SDS011;49111;51.028;4.218;2022-09-27T01:53:42;2.42;;;1.25;;
62911;SDS011;49111;51.028;4.218;2022-09-27T01:56:35;4.82;;;1.45;;
62911;SDS011;49111;51.028;4.218;2022-09-27T01:59:19;2.58;;;1.20;;
62911;SDS011;49111;51.028;4.218;2022-09-27T02:02:10;2.47;;;1.08;;
62911;SDS011;49111;51.028;4.218;2022-09-27T02:04:55;2.70;;;1.15;;
62911;SDS011;49111;51.028;4.218;2022-09-27T02:07:26;5.07;;;1.95;;
62911;SDS011;49111;51.028;4.218;2022-09-27T02:10:08;2.70;;;0.82;;
62911;SDS011;49111;51.028;4.218;2022-09-27T02:12:51;3.33;;;1.08;;
62911;SDS011;49111;51.028;4.218;2022-09-27T02:15:25;7.38;;;1.30;;
62911;SDS011;49111;51.028;4.218;2022-09-27T02:18:22;5.88;;;1.30;;
62911;SDS011;49111;51.028;4.218;2022-09-27T02:20:56;4.65;;;0.90;;
62911;SDS011;49111;51.028;4.218;2022-09-27T02:23:28;3.13;;;1.00;;
62911;SDS011;49111;51.028;4.218;2022-09-27T02:26:14;1.95;;;0.93;;
62911;SDS011;49111;51.028;4.218;2022-09-27T02:28:53;2.67;;;1.00;;
62911;SDS011;49111;51.028;4.218;2022-09-27T02:31:30;2.90;;;1.30;;
62911;SDS011;49111;51.028;4.218;2022-09-27T02:34:15;3.30;;;1.00;;
62911;SDS011;49111;51.028;4.218;2022-09-27T02:36:48;4.18;;;1.17;;
62911;SDS011;49111;51.028;4.218;2022-09-27T02:39:18;4.15;;;1.30;;
62911;SDS011;49111;51.028;4.218;2022-09-27T02:41:47;2.60;;;1.50;;
62911;SDS011;49111;51.028;4.218;2022-09-27T02:44:14;3.22;;;0.80;;
62911;SDS011;49111;51.028;4.218;2022-09-27T02:58:54;3.15;;;1.50;;
62911;SDS011;49111;51.028;4.218;2022-09-27T03:04:47;3.72;;;1.30;;
62911;SDS011;49111;51.028;4.218;2022-09-27T03:07:32;3.90;;;1.50;;
62911;SDS011;49111;51.028;4.218;2022-09-27T03:09:59;4.28;;;2.05;;
62911;SDS011;49111;51.028;4.218;2022-09-27T03:12:28;2.85;;;1.20;;
62911;SDS011;49111;51.028;4.218;2022-09-27T03:14:55;5.70;;;1.70;;
62911;SDS011;49111;51.028;4.218;2022-09-27T03:17:57;4.60;;;1.73;;
62911;SDS011;49111;51.028;4.218;2022-09-27T03:20:41;4.55;;;1.73;;
62911;SDS011;49111;51.028;4.218;2022-09-27T03:23:17;3.80;;;1.80;;
62911;SDS011;49111;51.028;4.218;2022-09-27T03:25:44;5.85;;;2.03;;
62911;SDS011;49111;51.028;4.218;2022-09-27T03:28:11;5.50;;;2.50;;
62911;SDS011;49111;51.028;4.218;2022-09-27T03:30:39;2.88;;;1.33;;
62911;SDS011;49111;51.028;4.218;2022-09-27T03:33:06;3.45;;;1.55;;
62911;SDS011;49111;51.028;4.218;2022-09-27T03:35:53;2.00;;;1.48;;
62911;SDS011;49111;51.028;4.218;2022-09-27T03:38:19;4.50;;;2.35;;
62911;SDS011;49111;51.028;4.218;2022-09-27T03:40:45;4.20;;;1.70;;
62911;SDS011;49111;51.028;4.218;2022-09-27T03:43:12;5.43;;;2.00;;
62911;SDS011;49111;51.028;4.218;2022-09-27T03:45:37;3.95;;;1.95;;
62911;SDS011;49111;51.028;4.218;2022-09-27T03:48:07;4.90;;;2.20;;
62911;SDS011;49111;51.028;4.218;2022-09-27T03:50:33;10.25;;;2.50;;
62911;SDS011;49111;51.028;4.218;2022-09-27T03:52:58;5.00;;;2.22;;
62911;SDS011;49111;51.028;4.218;2022-09-27T03:55:24;4.75;;;2.45;;
62911;SDS011;49111;51.028;4.218;2022-09-27T03:57:50;7.20;;;2.63;;
62911;SDS011;49111;51.028;4.218;2022-09-27T04:00:17;6.50;;;2.80;;
62911;SDS011;49111;51.028;4.218;2022-09-27T04:02:43;4.05;;;2.28;;
62911;SDS011;49111;51.028;4.218;2022-09-27T04:05:21;5.05;;;2.72;;
62911;SDS011;49111;51.028;4.218;2022-09-27T04:07:55;6.47;;;2.83;;
62911;SDS011;49111;51.028;4.218;2022-09-27T04:10:21;9.05;;;2.92;;
62911;SDS011;49111;51.028;4.218;2022-09-27T04:12:48;6.75;;;2.45;;
62911;SDS011;49111;51.028;4.218;2022-09-27T04:15:14;5.72;;;2.30;;
62911;SDS011;49111;51.028;4.218;2022-09-27T04:17:49;3.97;;;1.85;;
62911;SDS011;49111;51.028;4.218;2022-09-27T04:20:38;3.63;;;2.30;;
62911;SDS011;49111;51.028;4.218;2022-09-27T04:23:10;4.45;;;2.20;;
62911;SDS011;49111;51.028;4.218;2022-09-27T04:25:39;6.10;;;2.10;;
62911;SDS011;49111;51.028;4.218;2022-09-27T04:28:13;4.70;;;2.30;;
62911;SDS011;49111;51.028;4.218;2022-09-27T04:30:40;4.53;;;2.05;;
62911;SDS011;49111;51.028;4.218;2022-09-27T04:33:12;4.63;;;1.98;;
62911;SDS011;49111;51.028;4.218;2022-09-27T04:35:58;6.47;;;2.22;;
62911;SDS011;49111;51.028;4.218;2022-09-27T04:38:57;6.40;;;2.45;;
62911;SDS011;49111;51.028;4.218;2022-09-27T04:41:26;3.38;;;1.75;;
62911;SDS011;49111;51.028;4.218;2022-09-27T04:43:53;2.92;;;1.77;;
62911;SDS011;49111;51.028;4.218;2022-09-27T04:46:19;5.55;;;2.28;;
62911;SDS011;49111;51.028;4.218;2022-09-27T04:48:48;6.10;;;2.85;;
62911;SDS011;49111;51.028;4.218;2022-09-27T04:51:15;5.13;;;2.45;;
62911;SDS011;49111;51.028;4.218;2022-09-27T04:53:44;6.45;;;3.38;;
62911;SDS011;49111;51.028;4.218;2022-09-27T04:56:11;7.60;;;3.20;;
62911;SDS011;49111;51.028;4.218;2022-09-27T04:58:38;7.20;;;3.60;;
62911;SDS011;49111;51.028;4.218;2022-09-27T05:01:04;7.72;;;3.15;;
62911;SDS011;49111;51.028;4.218;2022-09-27T05:03:53;15.27;;;4.95;;
62911;SDS011;49111;51.028;4.218;2022-09-27T05:06:18;7.63;;;4.00;;
62911;SDS011;49111;51.028;4.218;2022-09-27T05:08:45;11.50;;;4.93;;
62911;SDS011;49111;51.028;4.218;2022-09-27T05:11:24;5.95;;;4.38;;
62911;SDS011;49111;51.028;4.218;2022-09-27T05:14:09;8.80;;;4.50;;
62911;SDS011;49111;51.028;4.218;2022-09-27T05:16:46;8.60;;;4.75;;
62911;SDS011;49111;51.028;4.218;2022-09-27T05:19:31;9.55;;;4.88;;
62911;SDS011;49111;51.028;4.218;2022-09-27T05:22:10;9.95;;;3.70;;
62911;SDS011;49111;51.028;4.218;2022-09-27T05:24:36;8.30;;;3.45;;
62911;SDS011;49111;51.028;4.218;2022-09-27T05:27:02;6.97;;;3.83;;
62911;SDS011;49111;51.028;4.218;2022-09-27T05:29:32;6.40;;;3.53;;
62911;SDS011;49111;51.028;4.218;2022-09-27T05:32:09;7.03;;;3.00;;
62911;SDS011;49111;51.028;4.218;2022-09-27T05:34:35;5.20;;;3.10;;
62911;SDS011;49111;51.028;4.218;2022-09-27T05:37:01;6.45;;;3.13;;
62911;SDS011;49111;51.028;4.218;2022-09-27T05:39:30;4.63;;;3.00;;
62911;SDS011;49111;51.028;4.218;2022-09-27T05:41:56;4.10;;;2.92;;
62911;SDS011;49111;51.028;4.218;2022-09-27T05:44:22;5.93;;;2.85;;
62911;SDS011;49111;51.028;4.218;2022-09-27T05:46:59;5.13;;;3.38;;
62911;SDS011;49111;51.028;4.218;2022-09-27T05:49:29;5.07;;;3.30;;
62911;SDS011;49111;51.028;4.218;2022-09-27T05:51:55;5.28;;;2.95;;
62911;SDS011;49111;51.028;4.218;2022-09-27T05:54:23;5.18;;;2.97;;
62911;SDS011;49111;51.028;4.218;2022-09-27T05:56:49;5.13;;;2.92;;
62911;SDS011;49111;51.028;4.218;2022-09-27T05:59:32;4.88;;;3.00;;
62911;SDS011;49111;51.028;4.218;2022-09-27T06:02:27;5.53;;;2.90;;
62911;SDS011;49111;51.028;4.218;2022-09-27T06:05:12;5.55;;;3.00;;
62911;SDS011;49111;51.028;4.218;2022-09-27T06:07:38;5.30;;;3.47;;
62911;SDS011;49111;51.028;4.218;2022-09-27T06:10:08;4.78;;;3.00;;
62911;SDS011;49111;51.028;4.218;2022-09-27T06:12:34;3.00;;;2.13;;
62911;SDS011;49111;51.028;4.218;2022-09-27T06:15:02;3.35;;;2.83;;
62911;SDS011;49111;51.028;4.218;2022-09-27T06:17:37;8.88;;;3.35;;
62911;SDS011;49111;51.028;4.218;2022-09-27T06:20:12;4.57;;;3.05;;
62911;SDS011;49111;51.028;4.218;2022-09-27T06:22:38;6.60;;;3.35;;
62911;SDS011;49111;51.028;4.218;2022-09-27T06:25:05;5.63;;;3.38;;
62911;SDS011;49111;51.028;4.218;2022-09-27T06:27:37;3.90;;;2.83;;
62911;SDS011;49111;51.028;4.218;2022-09-27T06:30:10;4.93;;;2.67;;
62911;SDS011;49111;51.028;4.218;2022-09-27T06:33:02;5.47;;;2.53;;
62911;SDS011;49111;51.028;4.218;2022-09-27T06:35:37;5.00;;;2.35;;
62911;SDS011;49111;51.028;4.218;2022-09-27T06:38:05;4.85;;;2.92;;
62911;SDS011;49111;51.028;4.218;2022-09-27T06:40:34;5.63;;;2.90;;
62911;SDS011;49111;51.028;4.218;2022-09-27T06:43:21;6.90;;;2.92;;
62911;SDS011;49111;51.028;4.218;2022-09-27T06:46:05;4.47;;;2.72;;
62911;SDS011;49111;51.028;4.218;2022-09-27T06:48:50;7.00;;;3.10;;
62911;SDS011;49111;51.028;4.218;2022-09-27T06:51:18;4.95;;;2.90;;
62911;SDS011;49111;51.028;4.218;2022-09-27T06:53:44;5.22;;;2.83;;
62911;SDS011;49111;51.028;4.218;2022-09-27T06:56:10;4.65;;;2.83;;
62911;SDS011;49111;51.028;4.218;2022-09-27T06:58:43;5.30;;;2.08;;
62911;SDS011;49111;51.028;4.218;2022-09-27T07:01:40;4.20;;;2.65;;
62911;SDS011;49111;51.028;4.218;2022-09-27T07:04:21;4.72;;;2.53;;
62911;SDS011;49111;51.028;4.218;2022-09-27T07:07:10;6.22;;;3.20;;
62911;SDS011;49111;51.028;4.218;2022-09-27T07:09:38;6.05;;;3.13;;
62911;SDS011;49111;51.028;4.218;2022-09-27T07:12:05;4.75;;;2.90;;
62911;SDS011;49111;51.028;4.218;2022-09-27T07:14:31;4.47;;;3.17;;
62911;SDS011;49111;51.028;4.218;2022-09-27T07:16:59;5.38;;;3.40;;
62911;SDS011;49111;51.028;4.218;2022-09-27T07:19:29;6.50;;;3.60;;
62911;SDS011;49111;51.028;4.218;2022-09-27T07:21:55;6.55;;;3.15;;
62911;SDS011;49111;51.028;4.218;2022-09-27T07:24:21;7.35;;;3.15;;
62911;SDS011;49111;51.028;4.218;2022-09-27T07:26:48;4.88;;;3.20;;
62911;SDS011;49111;51.028;4.218;2022-09-27T07:29:16;4.93;;;3.13;;
62911;SDS011;49111;51.028;4.218;2022-09-27T07:31:42;4.45;;;2.72;;
62911;SDS011;49111;51.028;4.218;2022-09-27T07:34:08;8.00;;;3.20;;
62911;SDS011;49111;51.028;4.218;2022-09-27T07:36:35;10.00;;;3.85;;
62911;SDS011;49111;51.028;4.218;2022-09-27T07:39:01;8.63;;;3.60;;
62911;SDS011;49111;51.028;4.218;2022-09-27T07:41:29;7.18;;;3.28;;
62911;SDS011;49111;51.028;4.218;2022-09-27T07:43:56;7.00;;;3.67;;
62911;SDS011;49111;51.028;4.218;2022-09-27T07:46:22;7.53;;;2.88;;
62911;SDS011;49111;51.028;4.218;2022-09-27T07:52:17;5.18;;;3.20;;
62911;SDS011;49111;51.028;4.218;2022-09-27T08:01:25;6.07;;;3.63;;
62911;SDS011;49111;51.028;4.218;2022-09-27T08:03:51;3.92;;;3.20;;
62911;SDS011;49111;51.028;4.218;2022-09-27T08:06:18;3.85;;;2.47;;
62911;SDS011;49111;51.028;4.218;2022-09-27T08:08:44;6.53;;;2.83;;
62911;SDS011;49111;51.028;4.218;2022-09-27T08:11:15;5.38;;;2.97;;
62911;SDS011;49111;51.028;4.218;2022-09-27T08:13:44;4.07;;;2.17;;
62911;SDS011;49111;51.028;4.218;2022-09-27T08:16:10;5.32;;;2.30;;
62911;SDS011;49111;51.028;4.218;2022-09-27T08:18:56;5.78;;;2.38;;
62911;SDS011;49111;51.028;4.218;2022-09-27T08:21:45;5.20;;;2.63;;
62911;SDS011;49111;51.028;4.218;2022-09-27T08:24:15;4.60;;;2.65;;
62911;SDS011;49111;51.028;4.218;2022-09-27T08:27:13;3.95;;;2.38;;
62911;SDS011;49111;51.028;4.218;2022-09-27T08:29:47;3.97;;;2.20;;
62911;SDS011;49111;51.028;4.218;2022-09-27T08:32:13;3.47;;;2.13;;
62911;SDS011;49111;51.028;4.218;2022-09-27T08:34:42;7.75;;;2.97;;
62911;SDS011;49111;51.028;4.218;2022-09-27T08:37:08;4.57;;;2.33;;
62911;SDS011;49111;51.028;4.218;2022-09-27T08:39:34;5.38;;;2.80;;
62911;SDS011;49111;51.028;4.218;2022-09-27T08:49:39;4.03;;;2.63;;
62911;SDS011;49111;51.028;4.218;2022-09-27T08:52:14;3.45;;;1.95;;
62911;SDS011;49111;51.028;4.218;2022-09-27T08:54:51;6.05;;;1.80;;
62911;SDS011;49111;51.028;4.218;2022-09-27T08:57:19;5.22;;;1.80;;
62911;SDS011;49111;51.028;4.218;2022-09-27T08:59:58;3.13;;;1.42;;
62911;SDS011;49111;51.028;4.218;2022-09-27T09:02:28;5.18;;;1.80;;
62911;SDS011;49111;51.028;4.218;2022-09-27T09:05:07;1.70;;;1.50;;
62911;SDS011;49111;51.028;4.218;2022-09-27T09:07:41;2.83;;;1.80;;
62911;SDS011;49111;51.028;4.218;2022-09-27T09:10:39;3.67;;;1.75;;
62911;SDS011;49111;51.028;4.218;2022-09-27T09:16:33;4.35;;;2.38;;
62911;SDS011;49111;51.028;4.218;2022-09-27T09:21:52;3.92;;;1.90;;
62911;SDS011;49111;51.028;4.218;2022-09-27T09:35:00;5.10;;;2.47;;
62911;SDS011;49111;51.028;4.218;2022-09-27T09:37:38;5.90;;;2.38;;
62911;SDS011;49111;51.028;4.218;2022-09-27T09:43:12;3.25;;;1.70;;
62911;SDS011;49111;51.028;4.218;2022-09-27T09:45:57;5.80;;;2.20;;
62911;SDS011;49111;51.028;4.218;2022-09-27T09:48:44;3.67;;;1.70;;
62911;SDS011;49111;51.028;4.218;2022-09-27T09:51:37;4.68;;;1.88;;
62911;SDS011;49111;51.028;4.218;2022-09-27T09:59:39;5.07;;;1.88;;
62911;SDS011;49111;51.028;4.218;2022-09-27T10:02:20;6.88;;;2.20;;
62911;SDS011;49111;51.028;4.218;2022-09-27T10:05:03;3.20;;;1.60;;
62911;SDS011;49111;51.028;4.218;2022-09-27T10:07:32;4.18;;;1.55;;
62911;SDS011;49111;51.028;4.218;2022-09-27T10:10:01;11.10;;;2.00;;
62911;SDS011;49111;51.028;4.218;2022-09-27T10:12:48;7.07;;;1.90;;
62911;SDS011;49111;51.028;4.218;2022-09-27T10:15:17;6.65;;;2.15;;
62911;SDS011;49111;51.028;4.218;2022-09-27T10:17:48;3.67;;;1.95;;
62911;SDS011;49111;51.028;4.218;2022-09-27T10:20:26;10.10;;;2.45;;
62911;SDS011;49111;51.028;4.218;2022-09-27T10:22:56;8.07;;;1.98;;
62911;SDS011;49111;51.028;4.218;2022-09-27T10:25:47;5.35;;;1.90;;
62911;SDS011;49111;51.028;4.218;2022-09-27T10:28:40;3.97;;;1.83;;
62911;SDS011;49111;51.028;4.218;2022-09-27T10:31:10;6.00;;;1.88;;
62911;SDS011;49111;51.028;4.218;2022-09-27T10:34:15;4.05;;;1.80;;
62911;SDS011;49111;51.028;4.218;2022-09-27T10:39:52;10.20;;;2.07;;
62911;SDS011;49111;51.028;4.218;2022-09-27T10:42:32;5.05;;;1.60;;
62911;SDS011;49111;51.028;4.218;2022-09-27T10:48:03;2.90;;;1.50;;
62911;SDS011;49111;51.028;4.218;2022-09-27T10:50:35;4.25;;;1.50;;
62911;SDS011;49111;51.028;4.218;2022-09-27T10:53:31;3.28;;;1.15;;
62911;SDS011;49111;51.028;4.218;2022-09-27T10:56:06;5.75;;;1.80;;
62911;SDS011;49111;51.028;4.218;2022-09-27T10:58:44;3.50;;;1.33;;
62911;SDS011;49111;51.028;4.218;2022-09-27T11:01:12;3.67;;;1.13;;
62911;SDS011;49111;51.028;4.218;2022-09-27T11:03:56;2.15;;;1.40;;
62911;SDS011;49111;51.028;4.218;2022-09-27T11:08:51;4.88;;;1.52;;
62911;SDS011;49111;51.028;4.218;2022-09-27T11:11:19;2.03;;;1.27;;
62911;SDS011;49111;51.028;4.218;2022-09-27T11:13:59;2.88;;;1.13;;
62911;SDS011;49111;51.028;4.218;2022-09-27T11:19:21;2.85;;;1.10;;
62911;SDS011;49111;51.028;4.218;2022-09-27T11:22:03;7.20;;;1.48;;
62911;SDS011;49111;51.028;4.218;2022-09-27T11:30:36;2.47;;;1.13;;
62911;SDS011;49111;51.028;4.218;2022-09-27T11:33:41;2.80;;;1.20;;
62911;SDS011;49111;51.028;4.218;2022-09-27T11:36:36;2.85;;;1.10;;
62911;SDS011;49111;51.028;4.218;2022-09-27T11:39:22;1.85;;;1.15;;
62911;SDS011;49111;51.028;4.218;2022-09-27T11:42:23;3.15;;;0.95;;
62911;SDS011;49111;51.028;4.218;2022-09-27T11:47:41;3.80;;;1.00;;
62911;SDS011;49111;51.028;4.218;2022-09-27T11:58:48;1.77;;;1.10;;
62911;SDS011;49111;51.028;4.218;2022-09-27T12:01:59;1.33;;;0.98;;
62911;SDS011;49111;51.028;4.218;2022-09-27T12:10:09;1.38;;;0.90;;
62911;SDS011;49111;51.028;4.218;2022-09-27T12:12:39;1.38;;;1.27;;
62911;SDS011;49111;51.028;4.218;2022-09-27T12:15:13;4.47;;;1.23;;
62911;SDS011;49111;51.028;4.218;2022-09-27T12:17:51;1.60;;;1.13;;
62911;SDS011;49111;51.028;4.218;2022-09-27T12:20:22;3.05;;;1.63;;
62911;SDS011;49111;51.028;4.218;2022-09-27T12:23:02;3.83;;;1.60;;
62911;SDS011;49111;51.028;4.218;2022-09-27T12:25:54;2.22;;;1.00;;
62911;SDS011;49111;51.028;4.218;2022-09-27T12:31:09;4.93;;;0.95;;
62911;SDS011;49111;51.028;4.218;2022-09-27T12:36:31;1.27;;;1.00;;
62911;SDS011;49111;51.028;4.218;2022-09-27T12:42:00;4.18;;;1.20;;
62911;SDS011;49111;51.028;4.218;2022-09-27T12:44:40;3.08;;;1.13;;
62911;SDS011;49111;51.028;4.218;2022-09-27T12:52:16;3.67;;;1.20;;
62911;SDS011;49111;51.028;4.218;2022-09-27T13:00:40;3.05;;;1.23;;
62911;SDS011;49111;51.028;4.218;2022-09-27T13:14:30;4.95;;;1.50;;
62911;SDS011;49111;51.028;4.218;2022-09-27T13:16:59;5.82;;;1.92;;
62911;SDS011;49111;51.028;4.218;2022-09-27T13:22:01;5.43;;;1.20;;
62911;SDS011;49111;51.028;4.218;2022-09-27T13:24:47;4.25;;;1.20;;
62911;SDS011;49111;51.028;4.218;2022-09-27T13:27:34;6.22;;;1.35;;
62911;SDS011;49111;51.028;4.218;2022-09-27T13:32:32;2.25;;;1.20;;
62911;SDS011;49111;51.028;4.218;2022-09-27T13:37:55;3.03;;;1.13;;
62911;SDS011;49111;51.028;4.218;2022-09-27T13:40:42;4.68;;;1.10;;
62911;SDS011;49111;51.028;4.218;2022-09-27T13:45:54;5.38;;;1.30;;
62911;SDS011;49111;51.028;4.218;2022-09-27T13:48:44;2.70;;;1.30;;
62911;SDS011;49111;51.028;4.218;2022-09-27T13:51:20;1.17;;;1.02;;
62911;SDS011;49111;51.028;4.218;2022-09-27T13:53:55;2.40;;;2.17;;
62911;SDS011;49111;51.028;4.218;2022-09-27T14:02:26;2.20;;;1.10;;
62911;SDS011;49111;51.028;4.218;2022-09-27T14:04:55;3.83;;;1.30;;
62911;SDS011;49111;51.028;4.218;2022-09-27T14:07:35;2.83;;;1.47;;
62911;SDS011;49111;51.028;4.218;2022-09-27T14:10:11;9.65;;;1.35;;
62911;SDS011;49111;51.028;4.218;2022-09-27T14:12:41;3.75;;;1.45;;
62911;SDS011;49111;51.028;4.218;2022-09-27T14:15:23;6.30;;;1.55;;
62911;SDS011;49111;51.028;4.218;2022-09-27T14:17:52;3.42;;;0.98;;
62911;SDS011;49111;51.028;4.218;2022-09-27T14:20:30;2.53;;;0.90;;
62911;SDS011;49111;51.028;4.218;2022-09-27T14:22:57;2.78;;;0.90;;
62911;SDS011;49111;51.028;4.218;2022-09-27T14:25:29;4.80;;;1.27;;
62911;SDS011;49111;51.028;4.218;2022-09-27T14:27:56;3.33;;;1.00;;
62911;SDS011;49111;51.028;4.218;2022-09-27T14:30:31;1.08;;;0.90;;
62911;SDS011;49111;51.028;4.218;2022-09-27T14:33:26;2.65;;;1.00;;
62911;SDS011;49111;51.028;4.218;2022-09-27T14:36:07;3.05;;;1.50;;
62911;SDS011;49111;51.028;4.218;2022-09-27T14:39:14;2.55;;;1.48;;
62911;SDS011;49111;51.028;4.218;2022-09-27T14:41:48;6.50;;;1.55;;
62911;SDS011;49111;51.028;4.218;2022-09-27T14:44:15;4.93;;;1.23;;
62911;SDS011;49111;51.028;4.218;2022-09-27T14:46:43;5.15;;;1.50;;
62911;SDS011;49111;51.028;4.218;2022-09-27T14:49:31;2.92;;;1.42;;
62911;SDS011;49111;51.028;4.218;2022-09-27T14:51:56;3.45;;;1.27;;
62911;SDS011;49111;51.028;4.218;2022-09-27T14:54:27;2.10;;;1.13;;
62911;SDS011;49111;51.028;4.218;2022-09-27T14:56:55;2.67;;;1.23;;
62911;SDS011;49111;51.028;4.218;2022-09-27T14:59:24;5.05;;;1.60;;
62911;SDS011;49111;51.028;4.218;2022-09-27T15:01:57;1.60;;;1.45;;
62911;SDS011;49111;51.028;4.218;2022-09-27T15:04:28;2.40;;;1.40;;
62911;SDS011;49111;51.028;4.218;2022-09-27T15:06:59;2.58;;;1.35;;
62911;SDS011;49111;51.028;4.218;2022-09-27T15:09:26;5.50;;;1.73;;
62911;SDS011;49111;51.028;4.218;2022-09-27T15:11:57;2.60;;;1.27;;
62911;SDS011;49111;51.028;4.218;2022-09-27T15:14:29;4.00;;;1.48;;
62911;SDS011;49111;51.028;4.218;2022-09-27T15:16:57;3.58;;;1.83;;
62911;SDS011;49111;51.028;4.218;2022-09-27T15:19:29;6.03;;;1.85;;
62911;SDS011;49111;51.028;4.218;2022-09-27T15:22:20;5.43;;;1.27;;
62911;SDS011;49111;51.028;4.218;2022-09-27T15:24:47;2.25;;;1.10;;
62911;SDS011;49111;51.028;4.218;2022-09-27T15:27:19;1.60;;;1.00;;
62911;SDS011;49111;51.028;4.218;2022-09-27T15:29:49;2.13;;;1.33;;
62911;SDS011;49111;51.028;4.218;2022-09-27T15:32:18;2.38;;;0.90;;
62911;SDS011;49111;51.028;4.218;2022-09-27T15:34:46;2.00;;;0.80;;
62911;SDS011;49111;51.028;4.218;2022-09-27T15:37:55;1.67;;;0.82;;
62911;SDS011;49111;51.028;4.218;2022-09-27T15:43:21;1.38;;;0.90;;
62911;SDS011;49111;51.028;4.218;2022-09-27T15:45:55;2.35;;;1.20;;
62911;SDS011;49111;51.028;4.218;2022-09-27T15:48:26;1.63;;;0.98;;
62911;SDS011;49111;51.028;4.218;2022-09-27T15:50:53;2.67;;;1.40;;
62911;SDS011;49111;51.028;4.218;2022-09-27T15:56:00;2.13;;;1.13;;
62911;SDS011;49111;51.028;4.218;2022-09-27T15:58:28;3.28;;;1.50;;
62911;SDS011;49111;51.028;4.218;2022-09-27T16:01:02;4.35;;;1.77;;
62911;SDS011;49111;51.028;4.218;2022-09-27T16:03:32;4.70;;;1.40;;
62911;SDS011;49111;51.028;4.218;2022-09-27T16:05:58;3.58;;;1.90;;
62911;SDS011;49111;51.028;4.218;2022-09-27T16:08:26;4.13;;;1.65;;
62911;SDS011;49111;51.028;4.218;2022-09-27T16:10:53;3.25;;;1.60;;
62911;SDS011;49111;51.028;4.218;2022-09-27T16:13:21;3.95;;;2.13;;
62911;SDS011;49111;51.028;4.218;2022-09-27T16:15:47;16.95;;;10.02;;
62911;SDS011;49111;51.028;4.218;2022-09-27T16:18:14;11.30;;;5.47;;
62911;SDS011;49111;51.028;4.218;2022-09-27T16:20:39;5.18;;;1.83;;
62911;SDS011;49111;51.028;4.218;2022-09-27T16:23:05;4.80;;;1.80;;
62911;SDS011;49111;51.028;4.218;2022-09-27T16:25:31;4.20;;;1.83;;
62911;SDS011;49111;51.028;4.218;2022-09-27T16:27:58;7.00;;;2.35;;
62911;SDS011;49111;51.028;4.218;2022-09-27T16:30:25;7.00;;;2.28;;
62911;SDS011;49111;51.028;4.218;2022-09-27T16:32:51;4.38;;;2.63;;
62911;SDS011;49111;51.028;4.218;2022-09-27T16:35:18;4.72;;;1.85;;
62911;SDS011;49111;51.028;4.218;2022-09-27T16:37:44;10.52;;;6.70;;
62911;SDS011;49111;51.028;4.218;2022-09-27T16:40:11;6.07;;;2.40;;
62911;SDS011;49111;51.028;4.218;2022-09-27T16:42:38;7.78;;;2.83;;
62911;SDS011;49111;51.028;4.218;2022-09-27T16:45:04;9.10;;;3.22;;
62911;SDS011;49111;51.028;4.218;2022-09-27T16:47:31;4.78;;;2.15;;
62911;SDS011;49111;51.028;4.218;2022-09-27T16:49:57;8.43;;;4.25;;
62911;SDS011;49111;51.028;4.218;2022-09-27T16:52:41;6.50;;;3.03;;
62911;SDS011;49111;51.028;4.218;2022-09-27T16:55:12;6.68;;;2.65;;
62911;SDS011;49111;51.028;4.218;2022-09-27T16:57:41;9.65;;;5.60;;
62911;SDS011;49111;51.028;4.218;2022-09-27T17:00:07;5.13;;;2.30;;
62911;SDS011;49111;51.028;4.218;2022-09-27T17:02:33;7.65;;;3.10;;
62911;SDS011;49111;51.028;4.218;2022-09-27T17:05:00;20.05;;;12.77;;
62911;SDS011;49111;51.028;4.218;2022-09-27T17:07:26;8.75;;;3.03;;
62911;SDS011;49111;51.028;4.218;2022-09-27T17:09:52;59.17;;;33.08;;
62911;SDS011;49111;51.028;4.218;2022-09-27T17:12:18;46.88;;;28.52;;
62911;SDS011;49111;51.028;4.218;2022-09-27T17:14:44;12.40;;;7.20;;
62911;SDS011;49111;51.028;4.218;2022-09-27T17:17:10;7.13;;;2.80;;
62911;SDS011;49111;51.028;4.218;2022-09-27T17:19:35;6.68;;;2.50;;
62911;SDS011;49111;51.028;4.218;2022-09-27T17:22:05;5.40;;;3.17;;
62911;SDS011;49111;51.028;4.218;2022-09-27T17:24:31;4.78;;;3.10;;
62911;SDS011;49111;51.028;4.218;2022-09-27T17:26:57;8.13;;;3.53;;
62911;SDS011;49111;51.028;4.218;2022-09-27T17:29:23;17.33;;;11.60;;
62911;SDS011;49111;51.028;4.218;2022-09-27T17:31:49;5.93;;;3.05;;
62911;SDS011;49111;51.028;4.218;2022-09-27T17:34:14;24.55;;;13.65;;
62911;SDS011;49111;51.028;4.218;2022-09-27T17:36:42;15.00;;;8.25;;
62911;SDS011;49111;51.028;4.218;2022-09-27T17:39:15;55.55;;;31.38;;
62911;SDS011;49111;51.028;4.218;2022-09-27T17:41:42;48.78;;;24.52;;
62911;SDS011;49111;51.028;4.218;2022-09-27T17:44:10;48.00;;;24.33;;
62911;SDS011;49111;51.028;4.218;2022-09-27T17:46:38;138.23;;;74.47;;
62911;SDS011;49111;51.028;4.218;2022-09-27T17:49:04;165.25;;;86.13;;
62911;SDS011;49111;51.028;4.218;2022-09-27T17:51:49;341.33;;;176.50;;
62911;SDS011;49111;51.028;4.218;2022-09-27T17:54:17;193.57;;;103.72;;
62911;SDS011;49111;51.028;4.218;2022-09-27T17:56:44;5.32;;;2.50;;
62911;SDS011;49111;51.028;4.218;2022-09-27T17:59:11;16.48;;;14.98;;
62911;SDS011;49111;51.028;4.218;2022-09-27T18:01:40;32.92;;;30.23;;
62911;SDS011;49111;51.028;4.218;2022-09-27T18:04:08;7.25;;;5.97;;
62911;SDS011;49111;51.028;4.218;2022-09-27T18:06:39;2.30;;;2.00;;
62911;SDS011;49111;51.028;4.218;2022-09-27T18:09:07;3.55;;;1.88;;
62911;SDS011;49111;51.028;4.218;2022-09-27T18:11:34;2.03;;;1.50;;
62911;SDS011;49111;51.028;4.218;2022-09-27T18:14:01;1.38;;;1.27;;